createdAt,value
2023-03-12T00:00:01.025Z,24.25
2023-03-12T00:06:10.495Z,22.08
2023-03-12T00:12:13.055Z,23.02
2023-03-12T00:18:14.924Z,18.42
2023-03-12T00:24:16.939Z,19.38
2023-03-12T00:30:18.836Z,15.18
2023-03-12T00:36:24.874Z,16.83
2023-03-12T00:42:26.689Z,27.75
2023-03-12T00:48:28.583Z,24.00
2023-03-12T00:54:30.675Z,21.13
2023-03-12T01:00:32.755Z,22.55
2023-03-12T01:06:34.846Z,26.17
2023-03-12T01:12:37.085Z,22.65
2023-03-12T01:18:39.412Z,24.40
2023-03-12T01:24:41.330Z,24.60
2023-03-12T01:30:43.226Z,35.72
2023-03-12T01:36:46.291Z,30.20
2023-03-12T01:42:58.763Z,23.58
2023-03-12T01:49:22.057Z,19.75
2023-03-12T01:55:24.443Z,23.40
2023-03-12T02:01:27.489Z,24.27
2023-03-12T02:07:30.196Z,17.60
2023-03-12T02:13:32.263Z,15.43
2023-03-12T02:20:08.063Z,19.30
2023-03-12T02:26:12.416Z,21.63
2023-03-12T02:32:26.390Z,14.43
2023-03-12T02:38:48.216Z,13.95
2023-03-12T02:44:50.628Z,13.70
2023-03-12T02:50:52.846Z,18.73
2023-03-12T02:56:55.501Z,15.85
2023-03-12T03:02:59.257Z,19.23
2023-03-12T03:09:01.959Z,15.05
2023-03-12T03:15:04.929Z,18.88
2023-03-12T03:21:16.300Z,13.02
2023-03-12T03:27:19.218Z,22.30
2023-03-12T03:33:21.615Z,23.92
2023-03-12T03:39:25.133Z,22.52
2023-03-12T03:45:27.203Z,21.60
2023-03-12T03:51:30.547Z,22.60
2023-03-12T03:57:36.834Z,17.98
2023-03-12T04:03:39.047Z,22.02
2023-03-12T04:09:44.727Z,18.17
2023-03-12T04:15:48.768Z,14.95
2023-03-12T04:21:51.149Z,16.70
2023-03-12T04:27:53.032Z,21.45
2023-03-12T04:33:55.095Z,15.93
2023-03-12T04:39:59.167Z,18.58
2023-03-12T04:46:01.269Z,14.98
2023-03-12T04:52:03.226Z,14.02
2023-03-12T04:58:05.350Z,12.30
2023-03-12T05:04:07.716Z,16.40
2023-03-12T05:10:10.237Z,14.63
2023-03-12T05:16:12.995Z,17.13
2023-03-12T05:22:16.274Z,12.77
2023-03-12T05:28:18.361Z,7.68
2023-03-12T05:34:20.530Z,12.82
2023-03-12T05:40:22.478Z,16.10
2023-03-12T05:46:25.916Z,8.52
2023-03-12T05:52:28.265Z,16.83
2023-03-12T05:58:30.915Z,11.38
2023-03-12T06:04:33.256Z,9.85
2023-03-12T06:10:37.965Z,11.18
2023-03-12T06:16:40.424Z,15.40
2023-03-12T06:22:42.700Z,13.45
2023-03-12T06:28:46.468Z,11.25
2023-03-12T06:34:48.353Z,15.57
2023-03-12T06:41:01.860Z,6.57
2023-03-12T06:47:03.956Z,9.15
2023-03-12T06:53:05.744Z,9.27
2023-03-12T06:59:07.948Z,8.60
2023-03-12T07:05:10.177Z,8.52
2023-03-12T07:11:12.606Z,8.95
2023-03-12T07:17:14.419Z,10.13
2023-03-12T07:23:16.635Z,9.60
2023-03-12T07:29:18.439Z,15.18
2023-03-12T07:35:20.426Z,6.45
2023-03-12T07:41:22.307Z,6.65
2023-03-12T07:47:24.823Z,5.32
2023-03-12T07:53:26.780Z,6.40
2023-03-12T07:59:28.911Z,6.15
2023-03-12T08:05:30.809Z,5.65
2023-03-12T08:11:34.383Z,8.80
2023-03-12T08:17:36.201Z,6.10
2023-03-12T08:23:38.079Z,10.02
2023-03-12T08:29:40.597Z,7.93
2023-03-12T08:35:42.522Z,9.95
2023-03-12T08:41:44.318Z,8.52
2023-03-12T08:47:46.211Z,6.70
2023-03-12T08:53:48.023Z,8.93
2023-03-12T08:59:49.819Z,6.63
2023-03-12T09:06:01.863Z,14.20
2023-03-12T09:12:03.837Z,10.30
2023-03-12T09:18:05.701Z,8.38
2023-03-12T09:24:07.829Z,12.68
2023-03-12T09:30:15.719Z,10.05
2023-03-12T09:36:17.950Z,6.45
2023-03-12T09:42:30.282Z,7.65
2023-03-12T09:48:35.298Z,8.73
2023-03-12T09:54:52.274Z,8.93
2023-03-12T10:01:00.939Z,11.77
2023-03-12T10:07:11.524Z,9.82
2023-03-12T10:13:40.764Z,7.22
2023-03-12T10:19:59.686Z,8.52
2023-03-12T10:26:23.158Z,8.93
2023-03-12T10:32:36.102Z,6.32
2023-03-12T10:38:37.890Z,14.43
2023-03-12T10:44:40.006Z,5.68
2023-03-12T10:50:41.876Z,9.88
2023-03-12T10:56:51.223Z,8.85
2023-03-12T11:03:05.375Z,6.38
2023-03-12T11:09:17.693Z,8.85
2023-03-12T11:15:21.242Z,7.80
2023-03-12T11:21:23.646Z,12.50
2023-03-12T11:27:36.941Z,6.95
2023-03-12T11:33:38.867Z,7.20
2023-03-12T11:39:43.327Z,10.25
2023-03-12T11:46:17.353Z,9.35
2023-03-12T11:52:46.077Z,7.82
2023-03-12T11:59:09.887Z,10.98
2023-03-12T12:05:26.745Z,9.35
2023-03-12T12:11:45.243Z,9.50
2023-03-12T12:18:04.596Z,12.38
2023-03-12T12:24:32.473Z,13.02
2023-03-12T12:31:04.148Z,12.82
2023-03-12T12:37:30.309Z,8.27
2023-03-12T12:43:47.547Z,13.82
2023-03-12T12:49:54.343Z,10.20
2023-03-12T12:56:02.056Z,12.40
2023-03-12T13:02:05.856Z,18.02
2023-03-12T13:08:11.293Z,16.50
2023-03-12T13:14:19.669Z,14.98
2023-03-12T13:20:24.142Z,19.48
2023-03-12T13:26:42.849Z,13.93
2023-03-12T13:32:47.683Z,14.63
2023-03-12T13:39:06.829Z,14.77
2023-03-12T13:45:23.604Z,16.23
2023-03-12T13:51:26.700Z,17.47
2023-03-12T13:57:46.850Z,20.70
2023-03-12T14:03:53.330Z,16.73
2023-03-12T14:10:13.012Z,16.20
2023-03-12T14:16:36.739Z,14.68
2023-03-12T14:22:41.393Z,18.05
2023-03-12T14:28:44.704Z,19.10
2023-03-12T14:35:08.324Z,16.30
2023-03-12T14:41:27.808Z,14.77
2023-03-12T14:47:30.069Z,13.68
2023-03-12T14:53:37.489Z,13.43
2023-03-12T14:59:39.592Z,18.13
2023-03-12T15:05:48.898Z,18.77
2023-03-12T15:11:54.266Z,15.35
2023-03-12T15:17:56.569Z,19.05
2023-03-12T15:23:58.704Z,17.50
2023-03-12T15:30:01.155Z,18.10
2023-03-12T15:36:15.023Z,15.75
2023-03-12T15:42:19.818Z,18.25
2023-03-12T15:48:24.419Z,15.65
2023-03-12T15:54:29.660Z,17.02
2023-03-12T16:00:40.967Z,22.80
2023-03-12T16:06:44.254Z,14.13
2023-03-12T16:12:47.582Z,18.77
2023-03-12T16:18:49.486Z,16.40
2023-03-12T16:24:51.569Z,16.27
2023-03-12T16:30:53.498Z,18.05
2023-03-12T16:36:56.771Z,16.73
2023-03-12T16:43:02.719Z,16.88
2023-03-12T16:49:04.603Z,14.70
2023-03-12T16:55:06.905Z,14.45
2023-03-12T17:01:17.360Z,16.52
2023-03-12T17:07:19.154Z,15.35
2023-03-12T17:13:29.029Z,17.80
2023-03-12T17:19:30.950Z,16.17
2023-03-12T17:25:35.649Z,15.88
2023-03-12T17:31:37.660Z,14.95
2023-03-12T17:37:39.556Z,16.02
2023-03-12T17:43:41.867Z,16.52
2023-03-12T17:49:43.841Z,14.85
2023-03-12T17:55:47.368Z,15.38
2023-03-12T18:01:49.164Z,17.17
2023-03-12T18:07:51.495Z,18.45
2023-03-12T18:13:53.462Z,21.15
2023-03-12T18:19:55.384Z,17.00
2023-03-12T18:25:57.189Z,18.27
2023-03-12T18:31:58.985Z,19.08
2023-03-12T18:38:01.012Z,21.90
2023-03-12T18:44:02.813Z,22.00
2023-03-12T18:50:08.409Z,28.40
2023-03-12T18:56:10.398Z,26.13
2023-03-12T19:02:12.379Z,25.27
2023-03-12T19:08:14.992Z,25.67
2023-03-12T19:14:17.165Z,25.23
2023-03-12T19:20:19.232Z,25.95
2023-03-12T19:26:21.020Z,27.17
2023-03-12T19:32:25.376Z,26.60
2023-03-12T19:38:30.190Z,29.70
2023-03-12T19:44:35.322Z,30.45
2023-03-12T19:50:37.065Z,26.08
2023-03-12T19:56:38.810Z,29.17
2023-03-12T20:02:41.246Z,31.60
2023-03-12T20:08:44.495Z,29.45
2023-03-12T20:14:46.593Z,31.08
2023-03-12T20:20:48.372Z,31.88
2023-03-12T20:26:50.136Z,28.33
2023-03-12T20:32:51.979Z,33.30
2023-03-12T20:38:53.874Z,25.35
2023-03-12T20:44:55.614Z,37.03
2023-03-12T20:50:57.443Z,31.98
2023-03-12T20:56:59.165Z,26.05
2023-03-12T21:03:00.934Z,29.55
2023-03-12T21:09:03.373Z,28.15
2023-03-12T21:15:07.321Z,29.83
2023-03-12T21:21:09.523Z,25.63
2023-03-12T21:27:12.987Z,25.27
2023-03-12T21:33:14.768Z,24.05
2023-03-12T21:39:17.296Z,24.13
2023-03-12T21:45:22.120Z,32.47
2023-03-12T21:51:26.009Z,29.75
2023-03-12T21:57:28.594Z,28.08
2023-03-12T22:03:30.336Z,28.27
2023-03-12T22:09:32.074Z,38.50
2023-03-12T22:15:33.893Z,25.50
2023-03-12T22:21:35.846Z,20.92
2023-03-12T22:27:37.600Z,26.58
2023-03-12T22:33:39.431Z,26.70
2023-03-12T22:39:43.162Z,26.67
2023-03-12T22:45:44.987Z,29.98
2023-03-12T22:51:46.751Z,24.17
2023-03-12T22:57:48.486Z,25.73
2023-03-12T23:03:51.196Z,28.95
2023-03-12T23:09:52.946Z,37.78
2023-03-12T23:15:54.784Z,25.02
2023-03-12T23:21:56.595Z,28.80
2023-03-12T23:27:58.367Z,22.75
2023-03-12T23:34:00.145Z,22.02
2023-03-12T23:40:02.056Z,21.85
2023-03-12T23:46:05.731Z,24.52
2023-03-12T23:52:07.528Z,30.42
2023-03-12T23:58:09.555Z,36.15
